createdAt,value
2018-11-27T00:00:15.665Z,0.00
2018-11-27T00:00:54.648Z,0.00
2018-11-27T00:01:54.629Z,0.00
2018-11-27T00:02:54.613Z,0.00
2018-11-27T00:03:54.598Z,0.00
2018-11-27T00:04:54.587Z,0.00
2018-11-27T00:06:15.565Z,0.00
2018-11-27T00:06:54.541Z,0.00
2018-11-27T00:07:54.696Z,0.00
2018-11-27T00:08:54.507Z,0.00
2018-11-27T00:09:54.490Z,0.00
2018-11-27T00:10:54.469Z,0.00
2018-11-27T00:12:15.499Z,0.00
2018-11-27T00:12:54.438Z,0.00
2018-11-27T00:13:54.420Z,0.00
2018-11-27T00:14:54.402Z,0.00
2018-11-27T00:15:54.384Z,0.00
2018-11-27T00:16:54.367Z,0.00
2018-11-27T00:18:15.355Z,0.00
2018-11-27T00:18:54.334Z,0.00
2018-11-27T00:19:54.310Z,0.00
2018-11-27T00:20:54.294Z,0.00
2018-11-27T00:21:54.278Z,0.00
2018-11-27T00:22:54.259Z,0.00
2018-11-27T00:24:15.245Z,0.00
2018-11-27T00:24:54.226Z,0.00
2018-11-27T00:25:54.209Z,0.00
2018-11-27T00:26:54.192Z,0.00
2018-11-27T00:27:54.174Z,0.00
2018-11-27T00:28:54.151Z,0.00
2018-11-27T00:30:15.149Z,0.00
2018-11-27T00:30:54.121Z,0.00
2018-11-27T00:31:54.105Z,0.00
2018-11-27T00:32:54.087Z,0.00
2018-11-27T00:33:54.069Z,0.00
2018-11-27T00:34:54.049Z,0.00
2018-11-27T00:36:15.036Z,0.00
2018-11-27T00:36:54.021Z,0.00
2018-11-27T00:37:54.009Z,0.00
2018-11-27T00:38:53.972Z,0.00
2018-11-27T00:39:53.970Z,0.00
2018-11-27T00:40:53.946Z,0.00
2018-11-27T00:42:14.932Z,0.00
2018-11-27T00:42:53.906Z,0.00
2018-11-27T00:43:53.891Z,0.00
2018-11-27T00:44:53.875Z,0.00
2018-11-27T00:45:53.857Z,0.00
2018-11-27T00:46:53.838Z,0.00
2018-11-27T00:48:14.823Z,0.00
2018-11-27T00:48:53.803Z,0.00
2018-11-27T00:49:53.787Z,0.00
2018-11-27T00:50:53.773Z,0.00
2018-11-27T00:51:53.748Z,0.00
2018-11-27T00:52:53.732Z,0.00
2018-11-27T00:54:14.716Z,0.00
2018-11-27T00:54:58.615Z,0.00
2018-11-27T00:55:53.677Z,0.00
2018-11-27T00:56:53.661Z,0.00
2018-11-27T00:57:53.643Z,0.00
2018-11-27T00:58:53.625Z,0.00
2018-11-27T01:00:14.609Z,0.00
2018-11-27T01:00:53.588Z,0.00
2018-11-27T01:01:53.576Z,0.00
2018-11-27T01:02:53.559Z,0.00
2018-11-27T01:03:53.540Z,0.00
2018-11-27T01:04:53.525Z,0.00
2018-11-27T01:06:14.507Z,0.00
2018-11-27T01:06:53.484Z,0.00
2018-11-27T01:07:53.471Z,0.00
2018-11-27T01:08:53.455Z,0.00
2018-11-27T01:09:53.433Z,0.00
2018-11-27T01:10:53.420Z,0.00
2018-11-27T01:12:14.404Z,0.00
2018-11-27T01:12:53.385Z,0.00
2018-11-27T01:13:53.359Z,0.00
2018-11-27T01:14:53.343Z,0.00
2018-11-27T01:15:53.326Z,0.00
2018-11-27T01:16:53.310Z,0.00
2018-11-27T01:18:14.296Z,0.00
2018-11-27T01:18:53.272Z,0.00
2018-11-27T01:19:53.256Z,0.00
2018-11-27T01:20:53.236Z,0.00
2018-11-27T01:21:53.224Z,0.00
2018-11-27T01:22:53.204Z,0.00
2018-11-27T01:24:14.186Z,0.00
2018-11-27T01:24:53.169Z,0.00
2018-11-27T01:25:53.153Z,0.00
2018-11-27T01:26:53.132Z,0.00
2018-11-27T01:27:53.112Z,0.00
2018-11-27T01:28:53.100Z,0.00
2018-11-27T01:30:14.084Z,0.00
2018-11-27T01:30:53.063Z,0.00
2018-11-27T01:31:53.042Z,0.00
2018-11-27T01:32:53.027Z,0.00
2018-11-27T01:33:53.015Z,0.00
2018-11-27T01:34:52.992Z,0.00
2018-11-27T01:36:13.975Z,0.00
2018-11-27T01:36:52.957Z,0.00
2018-11-27T01:37:52.936Z,0.00
2018-11-27T01:38:52.920Z,0.00
2018-11-27T01:39:52.902Z,0.00
2018-11-27T01:40:52.884Z,0.00
2018-11-27T01:42:13.872Z,0.00
2018-11-27T01:42:52.851Z,0.00
2018-11-27T01:43:52.837Z,0.00
2018-11-27T01:44:52.818Z,0.00
2018-11-27T01:45:52.796Z,0.00
2018-11-27T01:46:52.786Z,0.00
2018-11-27T01:48:13.765Z,0.00
2018-11-27T01:48:52.745Z,0.00
2018-11-27T01:49:52.729Z,0.00
2018-11-27T01:50:52.711Z,0.00
2018-11-27T01:51:52.707Z,0.00
2018-11-27T01:52:52.677Z,0.00
2018-11-27T01:54:13.659Z,0.00
2018-11-27T01:54:52.643Z,0.00
2018-11-27T01:55:52.629Z,0.00
2018-11-27T01:56:52.604Z,0.00
2018-11-27T01:57:52.588Z,0.00
2018-11-27T01:58:52.570Z,0.00
2018-11-27T02:00:13.562Z,0.00
2018-11-27T02:00:52.538Z,0.00
2018-11-27T02:01:52.515Z,0.00
2018-11-27T02:02:52.500Z,0.00
2018-11-27T02:03:52.480Z,0.00
2018-11-27T02:04:52.464Z,0.00
2018-11-27T02:06:13.448Z,0.00
2018-11-27T02:06:52.428Z,0.00
2018-11-27T02:07:52.412Z,0.00
2018-11-27T02:08:52.390Z,0.00
2018-11-27T02:09:52.369Z,0.00
2018-11-27T02:10:52.354Z,0.00
2018-11-27T02:12:13.341Z,0.00
2018-11-27T02:12:52.321Z,0.00
2018-11-27T02:13:52.307Z,0.00
2018-11-27T02:14:52.287Z,0.00
2018-11-27T02:15:52.267Z,0.00
2018-11-27T02:16:52.250Z,0.00
2018-11-27T02:18:13.239Z,0.00
2018-11-27T02:18:52.209Z,0.00
2018-11-27T02:19:52.195Z,0.00
2018-11-27T02:20:52.182Z,0.00
2018-11-27T02:21:52.160Z,0.00
2018-11-27T02:22:52.139Z,0.00
2018-11-27T02:24:13.121Z,0.00
2018-11-27T02:24:52.107Z,0.00
2018-11-27T02:25:52.090Z,0.00
2018-11-27T02:26:52.069Z,0.00
2018-11-27T02:27:52.052Z,0.00
2018-11-27T02:28:52.038Z,0.00
2018-11-27T02:30:13.023Z,0.00
2018-11-27T02:30:52.000Z,0.00
2018-11-27T02:31:51.984Z,0.00
2018-11-27T02:32:51.968Z,0.00
2018-11-27T02:33:51.951Z,0.00
2018-11-27T02:34:51.934Z,0.00
2018-11-27T02:36:12.913Z,0.00
2018-11-27T02:36:51.891Z,0.00
2018-11-27T02:37:51.871Z,0.00
2018-11-27T02:38:51.859Z,0.00
2018-11-27T02:39:51.836Z,0.00
2018-11-27T02:40:51.825Z,0.00
2018-11-27T02:42:12.808Z,0.00
2018-11-27T02:42:51.783Z,0.00
2018-11-27T02:43:51.768Z,0.00
2018-11-27T02:44:51.750Z,0.00
2018-11-27T02:45:51.734Z,0.00
2018-11-27T02:46:51.719Z,0.00
2018-11-27T02:48:12.700Z,0.00
2018-11-27T02:48:51.685Z,0.00
2018-11-27T02:49:51.662Z,0.00
2018-11-27T02:50:51.645Z,0.00
2018-11-27T02:51:51.626Z,0.00
2018-11-27T02:52:51.606Z,0.00
2018-11-27T02:54:12.595Z,0.00
2018-11-27T02:54:51.577Z,0.00
2018-11-27T02:55:51.556Z,0.00
2018-11-27T02:56:51.544Z,0.00
2018-11-27T02:57:51.524Z,0.00
2018-11-27T02:58:51.503Z,0.00
2018-11-27T03:00:12.484Z,0.00
2018-11-27T03:00:51.468Z,0.00
2018-11-27T03:01:51.448Z,0.00
2018-11-27T03:02:51.437Z,0.00
2018-11-27T03:03:51.420Z,0.00
2018-11-27T03:04:51.398Z,0.00
2018-11-27T03:06:12.381Z,0.00
2018-11-27T03:06:51.358Z,0.00
2018-11-27T03:07:51.344Z,0.00
2018-11-27T03:08:51.326Z,0.00
2018-11-27T03:09:51.308Z,0.00
2018-11-27T03:10:51.292Z,0.00
2018-11-27T03:12:12.284Z,0.00
2018-11-27T03:12:51.253Z,0.00
2018-11-27T03:13:51.237Z,0.00
2018-11-27T03:14:51.230Z,0.00
2018-11-27T03:15:51.203Z,0.00
2018-11-27T03:16:51.197Z,0.00
2018-11-27T03:18:12.170Z,0.00
2018-11-27T03:18:51.151Z,0.00
2018-11-27T03:19:51.133Z,0.00
2018-11-27T03:20:51.114Z,0.00
2018-11-27T03:21:51.098Z,0.00
2018-11-27T03:22:51.087Z,0.00
2018-11-27T03:24:12.062Z,0.00
2018-11-27T03:24:51.046Z,0.00
2018-11-27T03:25:51.026Z,0.00
2018-11-27T03:26:51.008Z,0.00
2018-11-27T03:27:50.989Z,0.00
2018-11-27T03:28:50.976Z,0.00
2018-11-27T03:30:11.954Z,0.00
2018-11-27T03:30:50.936Z,0.00
2018-11-27T03:31:50.931Z,0.00
2018-11-27T03:32:50.902Z,0.00
2018-11-27T03:33:50.884Z,0.00
2018-11-27T03:34:50.861Z,0.00
2018-11-27T03:36:11.850Z,0.00
2018-11-27T03:36:50.836Z,0.00
2018-11-27T03:37:50.819Z,0.00
2018-11-27T03:38:50.801Z,0.00
2018-11-27T03:39:50.782Z,0.00
2018-11-27T03:40:50.767Z,0.00
2018-11-27T03:42:11.745Z,0.00
2018-11-27T03:42:50.725Z,0.00
2018-11-27T03:43:50.712Z,0.00
2018-11-27T03:44:50.691Z,0.00
2018-11-27T03:45:50.681Z,0.00
2018-11-27T03:46:50.655Z,0.00
2018-11-27T03:48:11.642Z,0.00
2018-11-27T03:48:50.626Z,0.00
2018-11-27T03:49:50.601Z,0.00
2018-11-27T03:50:50.586Z,0.00
2018-11-27T03:51:50.571Z,0.00
2018-11-27T03:52:50.556Z,0.00
2018-11-27T03:54:11.539Z,0.00
2018-11-27T03:54:50.520Z,0.00
2018-11-27T03:55:50.497Z,0.00
2018-11-27T03:56:50.483Z,0.00
2018-11-27T03:57:50.468Z,0.00
2018-11-27T03:58:50.446Z,0.00
2018-11-27T04:00:11.429Z,0.00
2018-11-27T04:00:50.422Z,0.00
2018-11-27T04:01:50.397Z,0.00
2018-11-27T04:02:50.381Z,0.00
2018-11-27T04:03:50.362Z,0.00
2018-11-27T04:04:50.342Z,0.00
2018-11-27T04:06:11.328Z,0.00
2018-11-27T04:06:50.311Z,0.00
2018-11-27T04:07:50.291Z,0.00
2018-11-27T04:08:50.275Z,0.00
2018-11-27T04:09:50.255Z,0.00
2018-11-27T04:10:50.237Z,0.00
2018-11-27T04:12:11.227Z,0.00
2018-11-27T04:12:50.206Z,0.00
2018-11-27T04:13:50.188Z,0.00
2018-11-27T04:14:50.170Z,0.00
2018-11-27T04:15:50.157Z,0.00
2018-11-27T04:16:50.134Z,0.00
2018-11-27T04:18:11.129Z,0.00
2018-11-27T04:18:50.103Z,0.00
2018-11-27T04:19:50.084Z,0.00
2018-11-27T04:20:50.064Z,0.00
2018-11-27T04:21:50.047Z,0.00
2018-11-27T04:22:50.031Z,0.00
2018-11-27T04:24:11.015Z,0.00
2018-11-27T04:24:49.994Z,0.00
2018-11-27T04:25:49.973Z,0.00
2018-11-27T04:26:49.959Z,0.00
2018-11-27T04:27:49.947Z,0.00
2018-11-27T04:28:49.929Z,0.00
2018-11-27T04:30:10.919Z,0.00
2018-11-27T04:30:51.160Z,0.00
2018-11-27T04:31:49.868Z,0.00
2018-11-27T04:32:49.860Z,0.00
2018-11-27T04:33:49.842Z,0.00
2018-11-27T04:34:49.824Z,0.00
2018-11-27T04:36:10.806Z,0.00
2018-11-27T04:36:49.795Z,0.00
2018-11-27T04:37:49.772Z,0.00
2018-11-27T04:38:49.755Z,0.00
2018-11-27T04:39:49.737Z,0.00
2018-11-27T04:40:49.718Z,0.00
2018-11-27T04:42:10.706Z,0.00
2018-11-27T04:42:49.688Z,0.00
2018-11-27T04:43:49.667Z,0.00
2018-11-27T04:44:49.646Z,0.00
2018-11-27T04:45:49.630Z,0.00
2018-11-27T04:46:49.674Z,0.00
2018-11-27T04:48:10.598Z,0.00
2018-11-27T04:48:49.578Z,0.00
2018-11-27T04:49:49.564Z,0.00
2018-11-27T04:50:49.548Z,0.00
2018-11-27T04:51:49.527Z,0.00
2018-11-27T04:52:49.512Z,0.00
2018-11-27T04:54:10.500Z,0.00
2018-11-27T04:54:49.472Z,0.00
2018-11-27T04:55:49.458Z,0.00
2018-11-27T04:56:49.441Z,0.00
2018-11-27T04:57:49.433Z,0.00
2018-11-27T04:58:49.405Z,0.00
2018-11-27T05:00:10.389Z,0.00
2018-11-27T05:00:49.384Z,0.00
2018-11-27T05:01:49.357Z,0.00
2018-11-27T05:02:49.331Z,0.00
2018-11-27T05:03:49.313Z,0.00
2018-11-27T05:04:49.301Z,0.00
2018-11-27T05:06:10.289Z,0.00
2018-11-27T05:06:49.265Z,0.00
2018-11-27T05:07:49.252Z,0.00
2018-11-27T05:08:49.230Z,0.00
2018-11-27T05:09:49.210Z,0.00
2018-11-27T05:10:49.194Z,0.00
2018-11-27T05:12:10.191Z,0.00
2018-11-27T05:12:49.162Z,0.00
2018-11-27T05:13:49.141Z,0.00
2018-11-27T05:14:49.126Z,0.00
2018-11-27T05:15:49.105Z,0.00
2018-11-27T05:16:49.098Z,0.00
2018-11-27T05:18:10.076Z,0.00
2018-11-27T05:18:49.055Z,0.00
2018-11-27T05:19:49.036Z,0.00
2018-11-27T05:20:49.018Z,0.00
2018-11-27T05:21:49.002Z,0.00
2018-11-27T05:22:48.985Z,0.00
2018-11-27T05:24:09.971Z,0.00
2018-11-27T05:24:48.949Z,0.00
2018-11-27T05:25:48.933Z,0.00
2018-11-27T05:26:48.915Z,0.00
2018-11-27T05:27:48.896Z,0.00
2018-11-27T05:28:48.880Z,0.00
2018-11-27T05:30:09.865Z,0.00
2018-11-27T05:30:48.843Z,0.00
2018-11-27T05:31:48.826Z,0.00
2018-11-27T05:32:48.816Z,0.00
2018-11-27T05:33:48.795Z,0.00
2018-11-27T05:34:48.776Z,0.00
2018-11-27T05:36:09.764Z,0.00
2018-11-27T05:36:48.747Z,0.00
2018-11-27T05:37:48.732Z,0.00
2018-11-27T05:38:48.714Z,0.00
2018-11-27T05:39:48.697Z,0.00
2018-11-27T05:40:48.676Z,0.00
2018-11-27T05:42:09.657Z,0.00
2018-11-27T05:42:48.640Z,0.00
2018-11-27T05:43:48.616Z,0.00
2018-11-27T05:44:48.600Z,0.00
2018-11-27T05:45:48.586Z,0.00
2018-11-27T05:46:48.570Z,0.00
2018-11-27T05:48:09.549Z,0.00
2018-11-27T05:48:48.531Z,0.00
2018-11-27T05:49:48.513Z,0.00
2018-11-27T05:50:48.509Z,0.00
2018-11-27T05:51:48.485Z,0.00
2018-11-27T05:52:48.465Z,0.00
2018-11-27T05:54:09.448Z,0.00
2018-11-27T05:54:48.429Z,0.00
2018-11-27T05:55:48.406Z,0.00
2018-11-27T05:56:48.393Z,0.00
2018-11-27T05:57:48.387Z,0.00
2018-11-27T05:58:48.355Z,0.00
2018-11-27T06:00:09.345Z,0.00
2018-11-27T06:00:48.325Z,0.00
2018-11-27T06:01:48.311Z,0.00
2018-11-27T06:02:48.290Z,0.00
2018-11-27T06:03:48.276Z,0.00
2018-11-27T06:04:48.255Z,0.00
2018-11-27T06:06:09.260Z,0.00
2018-11-27T06:06:48.219Z,0.00
2018-11-27T06:07:48.206Z,0.00
2018-11-27T06:08:48.184Z,0.00
2018-11-27T06:09:48.169Z,0.00
2018-11-27T06:10:48.151Z,0.00
2018-11-27T06:12:09.140Z,0.00
2018-11-27T06:12:48.116Z,0.00
2018-11-27T06:13:48.099Z,0.00
2018-11-27T06:14:48.084Z,0.00
2018-11-27T06:15:48.064Z,0.00
2018-11-27T06:16:48.045Z,0.00
2018-11-27T06:18:09.031Z,0.00
2018-11-27T06:18:48.009Z,0.00
2018-11-27T06:19:47.993Z,0.00
2018-11-27T06:20:47.983Z,0.00
2018-11-27T06:21:47.959Z,4.00
2018-11-27T06:22:47.942Z,4.00
2018-11-27T06:24:08.923Z,0.00
2018-11-27T06:24:47.921Z,4.00
2018-11-27T06:25:47.891Z,4.00
2018-11-27T06:26:47.872Z,4.00
2018-11-27T06:27:47.855Z,4.00
2018-11-27T06:28:47.836Z,4.00
2018-11-27T06:30:08.821Z,8.00
2018-11-27T06:30:47.809Z,4.00
2018-11-27T06:31:47.783Z,4.00
2018-11-27T06:32:47.764Z,12.00
2018-11-27T06:33:47.749Z,8.00
2018-11-27T06:34:47.734Z,12.00
2018-11-27T06:36:08.710Z,8.00
2018-11-27T06:36:47.697Z,12.00
2018-11-27T06:37:47.677Z,12.00
2018-11-27T06:38:47.654Z,12.00
2018-11-27T06:39:47.652Z,16.00
2018-11-27T06:40:47.623Z,20.00
2018-11-27T06:42:08.607Z,20.00
2018-11-27T06:42:47.590Z,24.00
2018-11-27T06:43:47.576Z,24.00
2018-11-27T06:44:47.556Z,20.00
2018-11-27T06:45:47.537Z,24.00
2018-11-27T06:46:47.519Z,24.00
2018-11-27T06:48:08.500Z,32.00
2018-11-27T06:48:47.484Z,32.00
2018-11-27T06:49:47.464Z,36.00
2018-11-27T06:50:47.448Z,40.00
2018-11-27T06:51:47.449Z,36.00
2018-11-27T06:52:47.408Z,40.00
2018-11-27T06:54:08.399Z,44.00
2018-11-27T06:54:47.379Z,48.00
2018-11-27T06:55:47.397Z,48.00
2018-11-27T06:56:47.339Z,48.00
2018-11-27T06:57:47.325Z,52.00
2018-11-27T06:58:47.309Z,52.00
2018-11-27T07:00:08.291Z,56.00
2018-11-27T07:00:47.272Z,56.00
2018-11-27T07:01:47.262Z,68.00
2018-11-27T07:02:47.235Z,64.00
2018-11-27T07:03:47.214Z,72.00
2018-11-27T07:04:47.200Z,80.00
2018-11-27T07:06:08.183Z,80.00
2018-11-27T07:06:47.172Z,84.00
2018-11-27T07:07:47.150Z,88.00
2018-11-27T07:08:47.129Z,92.00
2018-11-27T07:09:47.111Z,96.00
2018-11-27T07:10:47.097Z,100.00
2018-11-27T07:12:08.077Z,104.00
2018-11-27T07:12:47.059Z,104.00
2018-11-27T07:13:47.043Z,108.00
2018-11-27T07:14:47.073Z,112.00
2018-11-27T07:15:47.006Z,116.00
2018-11-27T07:16:46.990Z,116.00
2018-11-27T07:18:07.973Z,124.00
2018-11-27T07:18:46.952Z,128.00
2018-11-27T07:19:46.931Z,132.00
2018-11-27T07:20:46.922Z,144.00
2018-11-27T07:21:46.899Z,144.00
2018-11-27T07:22:46.879Z,144.00
2018-11-27T07:24:07.862Z,144.00
2018-11-27T07:24:46.846Z,144.00
2018-11-27T07:25:46.829Z,156.00
2018-11-27T07:26:46.812Z,160.00
2018-11-27T07:27:46.792Z,160.00
2018-11-27T07:28:46.778Z,164.00
2018-11-27T07:30:07.758Z,176.00
2018-11-27T07:30:46.742Z,168.00
2018-11-27T07:31:46.726Z,168.00
2018-11-27T07:32:46.711Z,176.00
2018-11-27T07:33:46.685Z,188.00
2018-11-27T07:34:46.671Z,184.00
2018-11-27T07:36:08.230Z,188.00
2018-11-27T07:36:46.633Z,180.00
2018-11-27T07:37:46.617Z,188.00
2018-11-27T07:38:46.603Z,180.00
2018-11-27T07:39:46.580Z,184.00
2018-11-27T07:40:46.562Z,184.00
2018-11-27T07:42:07.556Z,192.00
2018-11-27T07:42:46.528Z,192.00
2018-11-27T07:43:46.512Z,204.00
2018-11-27T07:44:46.492Z,216.00
2018-11-27T07:45:46.478Z,220.00
2018-11-27T07:46:46.459Z,224.00
2018-11-27T07:48:07.449Z,220.00
2018-11-27T07:48:46.423Z,216.00
2018-11-27T07:49:46.409Z,216.00
2018-11-27T07:50:46.389Z,224.00
2018-11-27T07:51:46.370Z,236.00
2018-11-27T07:52:46.354Z,252.00
2018-11-27T07:54:07.338Z,256.00
2018-11-27T07:54:46.316Z,280.00
2018-11-27T07:55:46.299Z,280.00
2018-11-27T07:56:46.285Z,284.00
2018-11-27T07:57:46.267Z,288.00
2018-11-27T07:58:46.247Z,296.00
2018-11-27T08:00:07.237Z,312.00
2018-11-27T08:00:46.213Z,340.00
2018-11-27T08:01:46.196Z,356.00
2018-11-27T08:02:46.177Z,336.00
2018-11-27T08:03:46.160Z,352.00
2018-11-27T08:04:46.140Z,360.00
2018-11-27T08:06:07.126Z,388.00
2018-11-27T08:06:46.106Z,388.00
2018-11-27T08:07:46.092Z,380.00
2018-11-27T08:08:46.076Z,400.00
2018-11-27T08:09:46.056Z,384.00
2018-11-27T08:10:46.041Z,388.00
2018-11-27T08:12:07.019Z,396.00
2018-11-27T08:12:46.005Z,404.00
2018-11-27T08:13:45.987Z,404.00
2018-11-27T08:14:45.971Z,404.00
2018-11-27T08:15:45.957Z,400.00
2018-11-27T08:16:45.935Z,396.00
2018-11-27T08:18:06.920Z,420.00
2018-11-27T08:18:45.902Z,420.00
2018-11-27T08:19:45.880Z,416.00
2018-11-27T08:20:45.862Z,400.00
2018-11-27T08:21:45.846Z,436.00
2018-11-27T08:22:45.840Z,456.00
2018-11-27T08:24:06.809Z,460.00
2018-11-27T08:24:45.793Z,452.00
2018-11-27T08:25:45.777Z,456.00
2018-11-27T08:26:45.760Z,460.00
2018-11-27T08:27:45.738Z,476.00
2018-11-27T08:28:45.722Z,488.00
2018-11-27T08:30:06.722Z,480.00
2018-11-27T08:30:45.687Z,492.00
2018-11-27T08:31:45.670Z,492.00
2018-11-27T08:32:45.656Z,484.00
2018-11-27T08:33:45.631Z,484.00
2018-11-27T08:34:45.615Z,496.00
2018-11-27T08:36:06.599Z,508.00
2018-11-27T08:36:45.584Z,516.00
2018-11-27T08:37:45.562Z,528.00
2018-11-27T08:38:45.545Z,528.00
2018-11-27T08:39:45.543Z,536.00
2018-11-27T08:40:45.512Z,580.00
2018-11-27T08:42:06.495Z,600.00
2018-11-27T08:42:45.472Z,608.00
2018-11-27T08:43:45.454Z,620.00
2018-11-27T08:44:45.437Z,608.00
2018-11-27T08:45:45.420Z,652.00
2018-11-27T08:46:45.402Z,624.00
2018-11-27T08:48:06.394Z,612.00
2018-11-27T08:48:45.368Z,620.00
2018-11-27T08:49:45.348Z,648.00
2018-11-27T08:50:45.329Z,688.00
2018-11-27T08:51:45.312Z,664.00
2018-11-27T08:52:46.915Z,664.00
2018-11-27T08:54:06.279Z,676.00
2018-11-27T08:54:45.258Z,696.00
2018-11-27T08:55:45.242Z,692.00
2018-11-27T08:56:45.226Z,768.00
2018-11-27T08:57:45.207Z,804.00
2018-11-27T08:58:45.186Z,772.00
2018-11-27T09:00:06.177Z,764.00
2018-11-27T09:00:45.157Z,808.00
2018-11-27T09:01:45.146Z,888.00
2018-11-27T09:02:45.605Z,848.00
2018-11-27T09:03:46.560Z,804.00
2018-11-27T09:04:45.097Z,824.00
2018-11-27T09:06:06.071Z,792.00
2018-11-27T09:06:45.049Z,788.00
2018-11-27T09:07:45.028Z,860.00
2018-11-27T09:08:45.015Z,860.00
2018-11-27T09:09:44.998Z,828.00
2018-11-27T09:10:44.979Z,828.00
2018-11-27T09:12:05.971Z,872.00
2018-11-27T09:12:44.946Z,944.00
2018-11-27T09:13:44.928Z,960.00
2018-11-27T09:14:44.912Z,940.00
2018-11-27T09:15:44.897Z,908.00
2018-11-27T09:16:44.885Z,968.00
2018-11-27T09:18:05.861Z,964.00
2018-11-27T09:18:44.845Z,992.00
2018-11-27T09:19:44.829Z,968.00
2018-11-27T09:20:44.803Z,984.00
2018-11-27T09:21:44.789Z,972.00
2018-11-27T09:22:44.777Z,972.00
2018-11-27T09:24:05.766Z,1000.00
2018-11-27T09:24:44.737Z,1028.00
2018-11-27T09:25:44.724Z,1080.00
2018-11-27T09:26:44.698Z,1088.00
2018-11-27T09:27:44.691Z,1076.00
2018-11-27T09:28:44.677Z,1192.00
2018-11-27T09:30:05.657Z,1260.00
2018-11-27T09:30:44.637Z,1180.00
2018-11-27T09:31:44.626Z,1276.00
2018-11-27T09:32:44.614Z,1284.00
2018-11-27T09:33:44.591Z,1248.00
2018-11-27T09:34:44.581Z,1264.00
2018-11-27T09:36:05.559Z,1256.00
2018-11-27T09:36:44.528Z,1240.00
2018-11-27T09:37:44.520Z,1256.00
2018-11-27T09:38:44.502Z,1272.00
2018-11-27T09:39:44.485Z,1276.00
2018-11-27T09:40:44.467Z,1192.00
2018-11-27T09:42:05.458Z,1140.00
2018-11-27T09:42:44.435Z,1116.00
2018-11-27T09:43:44.418Z,1104.00
2018-11-27T09:44:44.402Z,1108.00
2018-11-27T09:45:44.382Z,1112.00
2018-11-27T09:46:44.368Z,1156.00
2018-11-27T09:48:05.351Z,1144.00
2018-11-27T09:48:44.335Z,1124.00
2018-11-27T09:49:44.315Z,1140.00
2018-11-27T09:50:44.301Z,1136.00
2018-11-27T09:51:44.286Z,1160.00
2018-11-27T09:52:44.261Z,1140.00
2018-11-27T09:54:05.251Z,1204.00
2018-11-27T09:54:44.235Z,1220.00
2018-11-27T09:55:44.219Z,1212.00
2018-11-27T09:56:44.198Z,1236.00
2018-11-27T09:57:44.183Z,1216.00
2018-11-27T09:58:44.169Z,1220.00
2018-11-27T10:00:05.158Z,1240.00
2018-11-27T10:00:44.132Z,1316.00
2018-11-27T10:01:44.120Z,1296.00
2018-11-27T10:02:44.103Z,1232.00
2018-11-27T10:03:44.084Z,1224.00
2018-11-27T10:04:44.068Z,1252.00
2018-11-27T10:06:05.054Z,1280.00
2018-11-27T10:06:44.038Z,1260.00
2018-11-27T10:07:44.020Z,1260.00
2018-11-27T10:08:44.000Z,1224.00
2018-11-27T10:09:43.983Z,1192.00
2018-11-27T10:10:43.971Z,1208.00
2018-11-27T10:12:04.952Z,1200.00
2018-11-27T10:12:43.939Z,1176.00
2018-11-27T10:13:43.922Z,1188.00
2018-11-27T10:14:43.903Z,1204.00
2018-11-27T10:15:43.883Z,1188.00
2018-11-27T10:16:43.867Z,1188.00
2018-11-27T10:18:04.853Z,1160.00
2018-11-27T10:18:43.835Z,1176.00
2018-11-27T10:19:43.818Z,1180.00
2018-11-27T10:20:43.804Z,1192.00
2018-11-27T10:21:43.788Z,1196.00
2018-11-27T10:22:43.772Z,1200.00
2018-11-27T10:24:04.760Z,1260.00
2018-11-27T10:24:43.734Z,1244.00
2018-11-27T10:25:43.720Z,1276.00
2018-11-27T10:26:43.702Z,1296.00
2018-11-27T10:27:43.685Z,1340.00
2018-11-27T10:28:43.665Z,1360.00
2018-11-27T10:30:04.656Z,1364.00
2018-11-27T10:30:43.635Z,1320.00
2018-11-27T10:31:43.619Z,1360.00
2018-11-27T10:32:43.607Z,1352.00
2018-11-27T10:33:43.591Z,1344.00
2018-11-27T10:34:43.573Z,1384.00
2018-11-27T10:36:04.556Z,1388.00
2018-11-27T10:36:43.603Z,1424.00
2018-11-27T10:37:43.523Z,1424.00
2018-11-27T10:38:43.503Z,1476.00
2018-11-27T10:39:43.494Z,1488.00
2018-11-27T10:40:43.496Z,1488.00
2018-11-27T10:42:04.460Z,1444.00
2018-11-27T10:42:43.464Z,1452.00
2018-11-27T10:43:43.424Z,1564.00
2018-11-27T10:44:43.403Z,1652.00
2018-11-27T10:45:43.387Z,1524.00
2018-11-27T10:46:43.375Z,1472.00
2018-11-27T10:48:04.355Z,1524.00
2018-11-27T10:48:43.343Z,1544.00
2018-11-27T10:49:43.321Z,1528.00
2018-11-27T10:50:43.307Z,1560.00
2018-11-27T10:51:43.292Z,1616.00
2018-11-27T10:52:43.273Z,1568.00
2018-11-27T10:54:04.263Z,1564.00
2018-11-27T10:54:43.242Z,1672.00
2018-11-27T10:55:43.243Z,1644.00
2018-11-27T10:56:43.210Z,1580.00
2018-11-27T10:57:43.193Z,1508.00
2018-11-27T10:58:43.176Z,1536.00
2018-11-27T11:00:04.165Z,1600.00
2018-11-27T11:00:43.147Z,1628.00
2018-11-27T11:01:43.123Z,1540.00
2018-11-27T11:02:43.113Z,1520.00
2018-11-27T11:03:43.093Z,1620.00
2018-11-27T11:04:43.080Z,1748.00
2018-11-27T11:06:04.075Z,1804.00
2018-11-27T11:06:43.045Z,1856.00
2018-11-27T11:07:43.034Z,1884.00
2018-11-27T11:08:43.018Z,1820.00
2018-11-27T11:09:42.996Z,1876.00
2018-11-27T11:10:42.985Z,1864.00
2018-11-27T11:12:03.972Z,1688.00
2018-11-27T11:12:42.950Z,1652.00
2018-11-27T11:13:42.932Z,1684.00
2018-11-27T11:14:42.920Z,1752.00
2018-11-27T11:15:42.914Z,1692.00
2018-11-27T11:16:42.885Z,1760.00
2018-11-27T11:18:03.870Z,1676.00
2018-11-27T11:18:42.855Z,1664.00
2018-11-27T11:19:42.839Z,1608.00
2018-11-27T11:20:42.817Z,1576.00
2018-11-27T11:21:42.805Z,1500.00
2018-11-27T11:22:42.787Z,1504.00
2018-11-27T11:24:03.778Z,1612.00
2018-11-27T11:24:42.766Z,1544.00
2018-11-27T11:25:42.744Z,1564.00
2018-11-27T11:26:42.725Z,1548.00
2018-11-27T11:27:42.714Z,1560.00
2018-11-27T11:28:42.694Z,1568.00
2018-11-27T11:30:03.684Z,1560.00
2018-11-27T11:30:42.659Z,1564.00
2018-11-27T11:31:42.647Z,1536.00
2018-11-27T11:32:42.625Z,1524.00
2018-11-27T11:33:42.613Z,1516.00
2018-11-27T11:34:42.593Z,1508.00
2018-11-27T11:36:03.580Z,1520.00
2018-11-27T11:36:42.565Z,1564.00
2018-11-27T11:37:42.549Z,1520.00
2018-11-27T11:38:42.533Z,1496.00
2018-11-27T11:39:42.514Z,1396.00
2018-11-27T11:40:42.503Z,1348.00
2018-11-27T11:42:03.487Z,1368.00
2018-11-27T11:42:42.471Z,1328.00
2018-11-27T11:43:42.458Z,1268.00
2018-11-27T11:44:42.438Z,1360.00
2018-11-27T11:45:42.423Z,1376.00
2018-11-27T11:46:42.404Z,1292.00
2018-11-27T11:48:03.390Z,1272.00
2018-11-27T11:48:42.377Z,1276.00
2018-11-27T11:49:42.357Z,1264.00
2018-11-27T11:50:42.341Z,1248.00
2018-11-27T11:51:42.324Z,1304.00
2018-11-27T11:52:45.412Z,1292.00
2018-11-27T11:54:03.306Z,1328.00
2018-11-27T11:54:42.280Z,1388.00
2018-11-27T11:55:42.259Z,1396.00
2018-11-27T11:56:42.242Z,1432.00
2018-11-27T11:57:42.233Z,1300.00
2018-11-27T11:58:42.211Z,1252.00
2018-11-27T12:00:03.200Z,1268.00
2018-11-27T12:00:42.182Z,1184.00
2018-11-27T12:01:42.166Z,1160.00
2018-11-27T12:02:42.148Z,1148.00
2018-11-27T12:03:42.133Z,1196.00
2018-11-27T12:04:42.118Z,1208.00
2018-11-27T12:06:03.100Z,1204.00
2018-11-27T12:06:42.086Z,1176.00
2018-11-27T12:07:42.066Z,1144.00
2018-11-27T12:08:42.054Z,1120.00
2018-11-27T12:09:42.035Z,1104.00
2018-11-27T12:10:42.024Z,1112.00
2018-11-27T12:12:03.003Z,1028.00
2018-11-27T12:12:41.985Z,1000.00
2018-11-27T12:13:41.967Z,940.00
2018-11-27T12:14:41.955Z,896.00
2018-11-27T12:15:41.941Z,904.00
2018-11-27T12:16:41.921Z,848.00
2018-11-27T12:18:02.906Z,824.00
2018-11-27T12:18:41.887Z,776.00
2018-11-27T12:19:41.880Z,772.00
2018-11-27T12:20:41.860Z,764.00
2018-11-27T12:21:41.847Z,752.00
2018-11-27T12:22:41.830Z,752.00
2018-11-27T12:24:02.812Z,752.00
2018-11-27T12:24:41.796Z,788.00
2018-11-27T12:25:41.778Z,784.00
2018-11-27T12:26:41.764Z,824.00
2018-11-27T12:27:41.749Z,828.00
2018-11-27T12:28:41.727Z,808.00
2018-11-27T12:30:02.717Z,804.00
2018-11-27T12:30:41.694Z,804.00
2018-11-27T12:31:41.677Z,800.00
2018-11-27T12:32:41.665Z,820.00
2018-11-27T12:33:41.651Z,844.00
2018-11-27T12:34:41.630Z,872.00
2018-11-27T12:36:02.610Z,864.00
2018-11-27T12:36:41.606Z,844.00
2018-11-27T12:37:41.580Z,856.00
2018-11-27T12:38:41.563Z,920.00
2018-11-27T12:39:41.555Z,928.00
2018-11-27T12:40:41.533Z,936.00
2018-11-27T12:42:02.519Z,956.00
2018-11-27T12:42:41.503Z,960.00
2018-11-27T12:43:41.482Z,976.00
2018-11-27T12:44:41.466Z,1020.00
2018-11-27T12:45:41.451Z,964.00
2018-11-27T12:46:41.440Z,956.00
2018-11-27T12:48:02.429Z,936.00